Time;durP1;ratioP1;P1;durP2;ratioP2;P2;SDS_P1;SDS_P2;PMS_P1;PMS_P2;Temp;Humidity;BMP_temperature;BMP_pressure;BME280_temperature;BME280_humidity;BME280_pressure;Samples;Min_cycle;Max_cycle;Signal;HPM_P1;HPM_P2
2023/07/29 00:00:46;;;;;;;11.55;7.05;;;19.50;99.90;;;;;;5053390;28;20058;-75
2023/07/29 00:03:12;;;;;;;11.07;7.35;;;19.50;99.90;;;;;;5080418;28;20488;-75
2023/07/29 00:05:38;;;;;;;9.13;6.18;;;19.40;99.90;;;;;;5082855;28;20089;-76
2023/07/29 00:08:04;;;;;;;14.90;7.03;;;19.40;99.90;;;;;;5080473;28;20370;-75
2023/07/29 00:10:32;;;;;;;10.20;6.50;;;19.40;99.90;;;;;;5073216;28;20119;-76
2023/07/29 00:12:58;;;;;;;12.00;7.10;;;19.40;99.90;;;;;;5081550;28;21448;-76
2023/07/29 00:15:24;;;;;;;11.60;7.35;;;19.40;99.90;;;;;;5081908;28;20040;-76
2023/07/29 00:17:50;;;;;;;12.10;6.88;;;19.40;99.90;;;;;;5082782;28;20542;-75
2023/07/29 00:20:16;;;;;;;11.70;7.07;;;19.40;99.90;;;;;;5081191;28;20044;-76
2023/07/29 00:22:42;;;;;;;11.38;7.03;;;19.40;99.90;;;;;;5080438;28;20851;-76
2023/07/29 00:25:08;;;;;;;11.25;6.85;;;19.40;99.90;;;;;;5081003;28;20036;-76
2023/07/29 00:27:33;;;;;;;10.43;6.90;;;19.30;99.90;;;;;;5081325;28;20071;-75
2023/07/29 00:29:59;;;;;;;12.40;7.70;;;19.30;99.90;;;;;;5081787;28;20497;-75
2023/07/29 00:32:27;;;;;;;12.45;7.38;;;19.30;99.90;;;;;;5072904;28;20094;-75
2023/07/29 00:34:52;;;;;;;11.18;7.35;;;19.30;99.90;;;;;;5080841;28;20072;-75
2023/07/29 00:37:18;;;;;;;10.90;6.28;;;19.30;99.90;;;;;;5082451;28;20063;-75
2023/07/29 00:39:44;;;;;;;11.43;7.05;;;19.30;99.90;;;;;;5082914;28;20101;-75
2023/07/29 00:42:09;;;;;;;10.90;6.70;;;19.30;99.90;;;;;;5070496;28;20032;-75
2023/07/29 00:44:35;;;;;;;10.35;6.47;;;19.30;99.90;;;;;;5081583;28;20037;-75
2023/07/29 00:47:04;;;;;;;10.43;6.30;;;19.30;99.90;;;;;;5084889;28;20683;-75
2023/07/29 00:49:31;;;;;;;10.80;6.88;;;19.20;99.90;;;;;;5085188;28;20036;-75
2023/07/29 00:51:56;;;;;;;10.30;6.90;;;19.20;99.90;;;;;;5084392;28;20119;-75
2023/07/29 00:54:23;;;;;;;11.02;6.22;;;19.30;99.90;;;;;;5085432;28;20154;-75
2023/07/29 00:56:49;;;;;;;11.95;7.22;;;19.30;99.90;;;;;;5081686;28;20044;-74
2023/07/29 00:59:15;;;;;;;10.38;6.97;;;19.30;99.90;;;;;;5076331;28;20098;-75
2023/07/29 01:01:41;;;;;;;10.23;6.68;;;19.20;99.90;;;;;;5085290;28;20081;-75
2023/07/29 01:04:06;;;;;;;13.48;7.22;;;19.20;99.90;;;;;;5085716;28;20040;-75
2023/07/29 01:07:06;;;;;;;11.27;7.00;;;19.20;99.90;;;;;;5085582;28;20054;-75
2023/07/29 01:09:35;;;;;;;11.45;8.07;;;19.20;99.90;;;;;;5068772;28;20525;-75
2023/07/29 01:12:19;;;;;;;11.07;7.90;;;19.20;99.90;;;;;;5083845;28;20579;-75
2023/07/29 01:15:03;;;;;;;11.73;7.07;;;19.10;99.90;;;;;;5083994;28;20044;-76
2023/07/29 01:17:34;;;;;;;11.25;7.65;;;19.20;99.90;;;;;;5087008;28;20051;-75
2023/07/29 01:20:00;;;;;;;12.80;8.10;;;19.20;99.90;;;;;;5089143;28;20475;-76
2023/07/29 01:22:26;;;;;;;12.25;7.78;;;19.10;99.90;;;;;;5088818;28;20611;-71
2023/07/29 01:24:51;;;;;;;13.20;7.88;;;19.10;99.90;;;;;;5087445;28;20079;-70
2023/07/29 01:27:17;;;;;;;11.27;8.00;;;19.10;99.90;;;;;;5085656;28;20476;-71
2023/07/29 01:29:43;;;;;;;10.63;8.05;;;19.10;99.90;;;;;;5087241;28;20519;-72
2023/07/29 01:32:24;;;;;;;11.05;7.63;;;19.00;99.90;;;;;;5088323;28;20043;-71
2023/07/29 01:34:59;;;;;;;13.57;7.60;;;19.00;99.90;;;;;;5083291;28;20040;-71
2023/07/29 01:37:29;;;;;;;11.43;8.05;;;19.00;99.90;;;;;;5088347;28;20082;-72
2023/07/29 01:39:58;;;;;;;11.57;7.60;;;19.00;99.90;;;;;;5088665;28;20040;-72
2023/07/29 01:42:25;;;;;;;14.52;8.45;;;19.00;99.90;;;;;;5088079;28;20044;-71
2023/07/29 01:44:51;;;;;;;10.23;7.55;;;18.90;99.90;;;;;;5088748;28;20081;-72
2023/07/29 01:47:17;;;;;;;10.70;7.65;;;18.90;99.90;;;;;;5066934;28;20458;-72
2023/07/29 01:49:43;;;;;;;10.23;7.43;;;18.90;99.90;;;;;;5088301;28;20043;-71
2023/07/29 01:52:08;;;;;;;11.98;7.82;;;18.80;99.90;;;;;;5086810;28;20110;-71
2023/07/29 01:54:34;;;;;;;11.98;8.23;;;18.80;99.90;;;;;;5088425;28;20055;-72
2023/07/29 01:57:00;;;;;;;11.73;7.75;;;18.80;99.90;;;;;;5066035;28;20148;-72
2023/07/29 01:59:26;;;;;;;12.45;8.10;;;18.90;99.90;;;;;;5087558;28;20089;-71
2023/07/29 02:01:51;;;;;;;11.23;7.72;;;18.80;99.90;;;;;;5086227;28;20125;-71
2023/07/29 02:04:17;;;;;;;9.88;7.38;;;18.80;99.90;;;;;;5088262;28;20043;-71
2023/07/29 02:06:43;;;;;;;11.73;8.68;;;18.70;99.90;;;;;;5087979;28;20043;-71
2023/07/29 02:09:12;;;;;;;12.25;8.57;;;18.70;99.90;;;;;;5088453;28;20048;-72
2023/07/29 02:11:37;;;;;;;11.43;8.52;;;18.70;99.90;;;;;;5088456;28;20036;-71
2023/07/29 02:14:03;;;;;;;11.90;8.50;;;18.60;99.90;;;;;;5087409;28;20042;-71
2023/07/29 02:16:29;;;;;;;10.30;7.43;;;18.60;99.90;;;;;;5088092;28;20043;-71
2023/07/29 02:18:55;;;;;;;13.38;8.02;;;18.60;99.90;;;;;;5085736;28;20086;-71
2023/07/29 02:21:20;;;;;;;11.65;8.02;;;18.60;99.90;;;;;;5087724;28;20047;-72
2023/07/29 02:23:46;;;;;;;14.48;8.27;;;18.50;99.90;;;;;;5087109;28;20591;-71
2023/07/29 02:26:12;;;;;;;12.35;8.05;;;18.50;99.90;;;;;;5086630;28;20044;-71
2023/07/29 02:28:37;;;;;;;11.48;7.93;;;18.50;99.90;;;;;;5085968;28;20602;-71
2023/07/29 02:31:21;;;;;;;13.30;8.60;;;18.50;99.90;;;;;;5087326;28;20042;-71
2023/07/29 02:33:46;;;;;;;11.50;8.50;;;18.50;99.90;;;;;;5084924;28;20036;-72
2023/07/29 02:36:13;;;;;;;12.52;8.55;;;18.40;99.90;;;;;;5087545;28;20051;-72
2023/07/29 02:38:40;;;;;;;13.82;8.23;;;18.40;99.90;;;;;;5085358;28;20044;-72
2023/07/29 02:41:06;;;;;;;11.77;8.20;;;18.40;99.90;;;;;;5087595;28;20124;-72
2023/07/29 02:43:32;;;;;;;11.85;7.80;;;18.30;99.90;;;;;;5087215;28;20060;-72
2023/07/29 02:45:57;;;;;;;12.43;7.43;;;18.30;99.90;;;;;;5083868;28;20039;-72
2023/07/29 02:48:24;;;;;;;12.45;8.00;;;18.30;99.90;;;;;;5085352;28;20036;-72
2023/07/29 02:50:50;;;;;;;13.90;8.45;;;18.30;99.90;;;;;;5087201;28;20078;-72
2023/07/29 02:53:16;;;;;;;11.10;7.88;;;18.30;99.90;;;;;;5085826;28;20036;-72
2023/07/29 02:55:41;;;;;;;12.27;8.38;;;18.20;99.90;;;;;;5087117;28;20847;-72
2023/07/29 02:58:07;;;;;;;12.07;8.00;;;18.20;99.90;;;;;;5068450;28;20048;-72
2023/07/29 03:00:33;;;;;;;11.10;7.65;;;18.20;99.90;;;;;;5083711;28;20051;-71
2023/07/29 03:02:59;;;;;;;10.95;7.40;;;18.20;99.90;;;;;;5084225;28;21872;-71
2023/07/29 03:05:27;;;;;;;10.27;7.18;;;18.20;99.90;;;;;;5086836;28;20040;-70
2023/07/29 03:07:53;;;;;;;10.05;6.97;;;18.20;99.90;;;;;;5085597;28;20036;-71
2023/07/29 03:10:19;;;;;;;11.45;6.93;;;18.10;99.90;;;;;;5087379;28;20492;-71
2023/07/29 03:12:44;;;;;;;11.23;7.60;;;18.10;99.90;;;;;;5086611;28;20035;-71
2023/07/29 03:15:11;;;;;;;11.82;6.93;;;18.10;99.90;;;;;;5086854;28;20062;-71
2023/07/29 03:17:37;;;;;;;11.25;7.15;;;18.10;99.90;;;;;;5086464;28;20492;-71
2023/07/29 03:20:02;;;;;;;12.77;7.70;;;18.10;99.90;;;;;;5087016;28;20040;-71
2023/07/29 03:22:28;;;;;;;10.40;7.20;;;18.10;99.90;;;;;;5085033;28;20551;-71
2023/07/29 03:24:54;;;;;;;11.48;7.55;;;18.00;99.90;;;;;;5072163;28;20036;-71
2023/07/29 03:27:20;;;;;;;12.20;6.85;;;18.00;99.90;;;;;;5085778;28;20425;-71
2023/07/29 03:29:46;;;;;;;13.50;7.65;;;18.00;99.90;;;;;;5082869;28;20413;-71
2023/07/29 03:32:12;;;;;;;11.68;6.57;;;18.00;99.90;;;;;;5069043;28;20047;-71
2023/07/29 03:34:38;;;;;;;10.13;7.03;;;18.00;99.90;;;;;;5079942;28;20044;-71
2023/07/29 03:37:04;;;;;;;11.00;7.38;;;18.00;99.90;;;;;;5082671;28;20046;-71
2023/07/29 03:39:30;;;;;;;11.13;7.70;;;17.90;99.90;;;;;;5084505;28;20489;-71
2023/07/29 03:41:55;;;;;;;11.68;7.18;;;17.90;99.90;;;;;;5079016;28;20540;-71
2023/07/29 03:44:21;;;;;;;12.23;6.95;;;17.90;99.90;;;;;;5081272;28;20068;-72
2023/07/29 03:46:47;;;;;;;11.65;7.43;;;17.80;99.90;;;;;;5083752;28;20040;-71
2023/07/29 03:49:13;;;;;;;11.88;6.80;;;17.80;99.90;;;;;;5083683;28;20067;-71
2023/07/29 03:51:39;;;;;;;11.35;6.68;;;17.80;99.90;;;;;;5082770;28;20283;-71
2023/07/29 03:54:04;;;;;;;12.13;7.43;;;17.80;99.90;;;;;;5081518;28;20040;-72
2023/07/29 03:56:30;;;;;;;14.57;6.68;;;17.80;99.90;;;;;;5086205;28;20044;-71
2023/07/29 03:59:03;;;;;;;11.35;6.35;;;17.80;99.90;;;;;;5084020;28;20524;-70
2023/07/29 04:01:29;;;;;;;9.55;6.60;;;17.80;99.90;;;;;;5072064;28;20517;-72
2023/07/29 04:03:55;;;;;;;10.15;5.47;;;17.70;99.90;;;;;;5083245;28;20071;-71
2023/07/29 04:06:20;;;;;;;11.00;6.50;;;17.70;99.90;;;;;;5082260;28;20071;-71
2023/07/29 04:08:46;;;;;;;10.73;6.30;;;17.70;99.90;;;;;;5081702;28;20044;-71
2023/07/29 04:11:12;;;;;;;12.48;6.15;;;17.70;99.90;;;;;;5073214;28;20093;-71
2023/07/29 04:13:38;;;;;;;12.35;6.45;;;17.70;99.90;;;;;;5081266;28;20044;-70
2023/07/29 04:16:05;;;;;;;13.85;7.20;;;17.60;99.90;;;;;;5080073;28;20134;-71
2023/07/29 04:18:30;;;;;;;9.77;5.82;;;17.70;99.90;;;;;;5082165;28;20080;-71
2023/07/29 04:20:56;;;;;;;9.32;5.53;;;17.60;99.90;;;;;;5081920;28;20662;-71
2023/07/29 04:23:22;;;;;;;10.50;6.47;;;17.60;99.90;;;;;;5081543;28;20040;-70
2023/07/29 04:25:48;;;;;;;13.52;6.47;;;17.60;99.90;;;;;;5082909;28;20059;-70
2023/07/29 04:28:13;;;;;;;10.73;6.28;;;17.60;99.90;;;;;;5084516;28;20123;-71
2023/07/29 04:30:39;;;;;;;10.80;5.65;;;17.60;99.90;;;;;;5083165;28;20109;-71
2023/07/29 04:33:05;;;;;;;15.52;6.28;;;17.60;99.90;;;;;;5080988;28;20040;-70
2023/07/29 04:35:31;;;;;;;9.15;6.22;;;17.60;99.90;;;;;;5080663;28;20556;-71
2023/07/29 04:37:56;;;;;;;13.10;6.55;;;17.60;99.90;;;;;;5084597;28;20032;-70
2023/07/29 04:40:22;;;;;;;10.98;6.25;;;17.60;99.90;;;;;;5081230;28;20044;-70
2023/07/29 04:42:49;;;;;;;9.30;5.60;;;17.50;99.90;;;;;;5072672;28;20090;-70
2023/07/29 04:45:16;;;;;;;8.48;5.72;;;17.50;99.90;;;;;;5080899;28;20058;-70
2023/07/29 04:47:41;;;;;;;11.88;5.57;;;17.60;99.90;;;;;;5081944;28;20067;-71
2023/07/29 04:50:09;;;;;;;10.23;5.00;;;17.70;99.90;;;;;;5080489;28;20497;-72
2023/07/29 04:52:35;;;;;;;10.30;5.32;;;17.80;99.90;;;;;;5086572;28;20051;-71
2023/07/29 04:55:00;;;;;;;9.07;4.78;;;17.80;99.90;;;;;;5087474;28;20055;-71
2023/07/29 04:57:26;;;;;;;8.75;4.60;;;17.80;99.90;;;;;;5088737;28;20124;-71
2023/07/29 04:59:52;;;;;;;11.13;4.90;;;17.80;99.90;;;;;;5089554;28;20475;-71
2023/07/29 05:02:17;;;;;;;7.55;3.95;;;17.80;99.90;;;;;;5088636;28;20579;-71
2023/07/29 05:04:43;;;;;;;9.48;4.18;;;17.80;99.90;;;;;;5087085;28;20044;-70
2023/07/29 05:07:09;;;;;;;8.02;3.75;;;17.80;99.90;;;;;;5087039;28;20028;-71
2023/07/29 05:09:35;;;;;;;9.52;4.60;;;17.80;99.90;;;;;;5088271;28;20131;-71
2023/07/29 05:12:01;;;;;;;11.00;4.93;;;17.80;99.90;;;;;;5086534;28;20166;-71
2023/07/29 05:14:26;;;;;;;8.77;4.30;;;17.80;99.90;;;;;;5087797;28;20115;-71
2023/07/29 05:16:52;;;;;;;7.80;3.78;;;17.70;99.90;;;;;;5088737;28;20039;-71
2023/07/29 05:19:18;;;;;;;10.00;4.55;;;17.80;99.90;;;;;;5089728;28;20040;-71
2023/07/29 05:21:43;;;;;;;8.55;4.53;;;17.70;99.90;;;;;;5089977;28;20500;-70
2023/07/29 05:24:09;;;;;;;8.10;4.53;;;17.70;99.90;;;;;;5090014;28;20048;-71
2023/07/29 05:26:35;;;;;;;8.57;4.00;;;17.70;99.90;;;;;;5089180;28;20252;-70
2023/07/29 05:29:01;;;;;;;10.93;4.45;;;17.70;99.90;;;;;;5089635;28;20588;-71
2023/07/29 05:31:27;;;;;;;9.80;4.43;;;17.70;99.90;;;;;;5089700;28;20051;-72
2023/07/29 05:33:53;;;;;;;8.52;3.70;;;17.70;99.90;;;;;;5088924;28;20081;-72
2023/07/29 05:36:19;;;;;;;6.90;3.47;;;17.60;99.90;;;;;;5089251;28;20040;-72
2023/07/29 05:38:44;;;;;;;9.73;4.07;;;17.70;99.90;;;;;;5087987;28;20040;-71
2023/07/29 05:41:10;;;;;;;7.55;3.67;;;17.60;99.90;;;;;;5089270;28;20040;-72
2023/07/29 05:43:37;;;;;;;8.55;3.78;;;17.60;99.90;;;;;;5086657;28;20082;-72
2023/07/29 05:46:03;;;;;;;7.65;3.90;;;17.70;99.90;;;;;;5086620;28;20044;-72
2023/07/29 05:48:28;;;;;;;8.77;3.60;;;17.60;99.90;;;;;;5089252;28;20047;-72
2023/07/29 05:50:54;;;;;;;11.55;4.05;;;17.70;99.90;;;;;;5088852;28;20404;-71
2023/07/29 05:53:20;;;;;;;8.00;4.03;;;17.70;99.90;;;;;;5089076;28;20036;-71
2023/07/29 05:55:46;;;;;;;6.40;3.63;;;17.70;99.90;;;;;;5087124;28;20043;-72
2023/07/29 05:58:12;;;;;;;8.27;3.63;;;17.70;99.90;;;;;;5089297;28;20044;-71
2023/07/29 06:00:37;;;;;;;9.73;4.38;;;17.70;99.90;;;;;;5070845;28;20047;-71
2023/07/29 06:03:03;;;;;;;8.88;4.22;;;17.70;99.90;;;;;;5087818;28;20044;-71
2023/07/29 06:05:29;;;;;;;7.43;3.38;;;17.70;99.90;;;;;;5088741;28;20110;-71
2023/07/29 06:07:54;;;;;;;6.10;3.30;;;17.70;99.90;;;;;;5088836;28;20472;-71
2023/07/29 06:10:20;;;;;;;9.85;3.45;;;17.60;99.90;;;;;;5088822;28;20042;-71
2023/07/29 06:12:46;;;;;;;5.75;3.25;;;17.70;99.90;;;;;;5088888;28;20044;-71
2023/07/29 06:15:12;;;;;;;7.35;3.30;;;17.70;99.90;;;;;;5087654;28;20048;-71
2023/07/29 06:17:39;;;;;;;11.55;3.60;;;17.70;99.90;;;;;;5088835;28;20051;-71
2023/07/29 06:20:05;;;;;;;9.77;3.35;;;17.70;99.90;;;;;;5088421;28;20040;-71
2023/07/29 06:22:31;;;;;;;8.70;3.60;;;17.80;99.90;;;;;;5088860;28;20036;-71
2023/07/29 06:24:57;;;;;;;9.32;3.80;;;17.80;99.90;;;;;;5088004;28;20051;-71
2023/07/29 06:27:24;;;;;;;7.68;3.70;;;17.80;99.90;;;;;;5088579;28;20115;-71
2023/07/29 06:29:50;;;;;;;8.88;3.50;;;17.80;99.90;;;;;;5088263;28;20036;-71
2023/07/29 06:32:16;;;;;;;7.75;3.25;;;17.90;99.90;;;;;;5088174;28;20051;-71
2023/07/29 06:34:41;;;;;;;7.82;3.40;;;18.00;99.90;;;;;;5087462;28;20071;-72
2023/07/29 06:37:07;;;;;;;8.68;3.63;;;18.00;99.90;;;;;;5088053;28;20641;-71
2023/07/29 06:39:33;;;;;;;10.40;3.92;;;18.00;99.90;;;;;;5088066;28;20696;-71
2023/07/29 06:41:59;;;;;;;8.95;3.60;;;18.10;99.90;;;;;;5088492;28;20044;-71
2023/07/29 06:44:24;;;;;;;9.43;3.78;;;18.10;99.90;;;;;;5088337;28;20390;-71
2023/07/29 06:46:50;;;;;;;10.40;3.55;;;18.10;99.90;;;;;;5086467;28;20710;-72
2023/07/29 06:49:16;;;;;;;10.38;4.03;;;18.20;99.90;;;;;;5088033;28;20036;-71
2023/07/29 06:51:41;;;;;;;13.18;3.53;;;18.10;99.90;;;;;;5087929;28;20121;-71
2023/07/29 06:54:07;;;;;;;9.43;3.78;;;18.20;99.90;;;;;;5087418;28;20491;-71
2023/07/29 06:56:33;;;;;;;8.85;3.60;;;18.20;99.90;;;;;;5087941;28;20132;-71
2023/07/29 06:58:58;;;;;;;8.57;3.35;;;18.30;99.90;;;;;;5087855;28;20091;-72
2023/07/29 07:01:24;;;;;;;10.48;3.33;;;18.30;99.90;;;;;;5087622;28;20070;-71
2023/07/29 07:03:50;;;;;;;10.25;3.30;;;18.30;99.90;;;;;;5087570;28;20497;-72
2023/07/29 07:06:16;;;;;;;10.48;3.65;;;18.30;99.90;;;;;;5087650;28;20071;-72
2023/07/29 07:08:41;;;;;;;9.98;4.40;;;18.40;99.90;;;;;;5087609;28;20040;-72
2023/07/29 07:11:07;;;;;;;11.18;3.50;;;18.40;99.90;;;;;;5086452;28;20125;-71
2023/07/29 07:13:33;;;;;;;11.95;3.75;;;18.40;99.90;;;;;;5087317;28;20389;-71
2023/07/29 07:15:59;;;;;;;10.20;3.58;;;18.50;99.90;;;;;;5087031;28;20046;-71
2023/07/29 07:18:25;;;;;;;13.98;4.82;;;18.50;99.90;;;;;;5086989;28;20043;-70
2023/07/29 07:20:51;;;;;;;17.33;4.03;;;18.60;99.90;;;;;;5087582;28;20079;-75
2023/07/29 07:23:18;;;;;;;12.48;3.58;;;18.60;99.90;;;;;;5087146;28;20097;-76
2023/07/29 07:25:44;;;;;;;8.30;3.70;;;18.60;99.90;;;;;;5084696;28;20039;-75
2023/07/29 07:28:10;;;;;;;13.32;3.83;;;18.60;99.90;;;;;;5087509;28;20036;-75
2023/07/29 07:30:41;;;;;;;9.70;4.07;;;18.60;99.90;;;;;;5085813;28;20044;-75
2023/07/29 07:33:06;;;;;;;9.13;3.80;;;18.60;99.90;;;;;;5084881;28;20492;-75
2023/07/29 07:35:35;;;;;;;9.57;4.15;;;18.70;99.90;;;;;;5086286;28;20112;-75
2023/07/29 07:38:03;;;;;;;7.53;3.53;;;18.70;99.90;;;;;;5086789;28;20040;-75
2023/07/29 07:40:30;;;;;;;12.38;4.00;;;18.70;99.90;;;;;;5085630;28;20125;-75
2023/07/29 07:42:56;;;;;;;11.18;3.88;;;18.80;99.90;;;;;;5087123;28;20044;-75
2023/07/29 07:45:25;;;;;;;9.52;4.03;;;18.80;99.90;;;;;;5087332;28;20123;-71
2023/07/29 07:47:55;;;;;;;13.25;3.30;;;18.90;99.90;;;;;;5086526;28;20850;-71
2023/07/29 07:50:21;;;;;;;9.50;3.78;;;18.90;99.90;;;;;;5087136;28;20032;-71
2023/07/29 07:52:47;;;;;;;11.77;3.60;;;19.00;99.90;;;;;;5086962;28;20094;-71
2023/07/29 07:55:13;;;;;;;9.27;3.40;;;19.00;99.90;;;;;;5085742;28;20072;-71
2023/07/29 07:57:38;;;;;;;21.20;4.75;;;19.10;99.90;;;;;;5085519;28;20086;-72
2023/07/29 08:00:05;;;;;;;13.70;4.28;;;19.10;99.90;;;;;;5087188;28;20036;-72
2023/07/29 08:02:31;;;;;;;12.32;3.30;;;19.10;99.90;;;;;;5083753;28;20059;-72
2023/07/29 08:04:56;;;;;;;14.05;3.53;;;19.20;99.90;;;;;;5066560;28;20409;-71
2023/07/29 08:07:22;;;;;;;9.10;3.40;;;19.30;99.90;;;;;;5087022;28;20040;-72
2023/07/29 08:09:48;;;;;;;9.60;3.25;;;19.40;99.90;;;;;;5086702;28;20093;-71
2023/07/29 08:12:13;;;;;;;11.65;3.10;;;19.40;99.90;;;;;;5086883;28;20123;-71
2023/07/29 08:14:39;;;;;;;7.75;2.97;;;19.50;99.90;;;;;;5086423;28;20031;-72
2023/07/29 08:17:05;;;;;;;9.88;2.97;;;19.50;99.90;;;;;;5086301;28;20044;-72
2023/07/29 08:19:30;;;;;;;6.93;2.20;;;19.50;99.90;;;;;;5086721;28;20700;-72
2023/07/29 08:21:56;;;;;;;11.55;3.10;;;19.60;99.90;;;;;;5085467;28;20564;-72
2023/07/29 08:24:22;;;;;;;8.93;2.60;;;19.60;99.90;;;;;;5086770;28;20081;-72
2023/07/29 08:26:47;;;;;;;6.38;2.20;;;19.50;99.90;;;;;;5086110;28;20530;-72
2023/07/29 08:29:13;;;;;;;9.10;2.70;;;19.50;99.90;;;;;;5090660;28;20039;-72
2023/07/29 08:31:39;;;;;;;11.05;2.70;;;19.60;99.90;;;;;;5090778;28;21464;-72
2023/07/29 08:34:05;;;;;;;8.43;2.60;;;19.60;99.90;;;;;;5088619;28;20043;-72
2023/07/29 08:36:30;;;;;;;5.97;2.05;;;19.60;99.90;;;;;;5090618;28;20036;-73
2023/07/29 08:38:56;;;;;;;7.68;2.75;;;19.70;99.90;;;;;;5090746;28;20127;-72
2023/07/29 08:41:29;;;;;;;10.88;3.40;;;19.70;99.90;;;;;;5090421;28;20127;-72
2023/07/29 08:44:22;;;;;;;9.45;2.50;;;19.80;99.90;;;;;;5090852;28;20120;-73
2023/07/29 08:46:48;;;;;;;8.95;2.22;;;19.80;99.90;;;;;;5089875;28;20036;-72
2023/07/29 08:49:15;;;;;;;6.55;2.20;;;19.90;99.90;;;;;;5088456;28;20397;-72
2023/07/29 08:51:44;;;;;;;8.45;3.17;;;19.90;99.90;;;;;;5089303;28;20067;-72
2023/07/29 08:54:10;;;;;;;6.90;1.80;;;19.90;99.90;;;;;;5090607;28;20109;-72
2023/07/29 08:56:37;;;;;;;5.47;1.90;;;19.90;99.90;;;;;;5090483;28;20048;-72
2023/07/29 08:59:04;;;;;;;9.23;2.22;;;20.00;99.90;;;;;;5088710;28;20133;-72
2023/07/29 09:01:30;;;;;;;7.38;1.95;;;19.90;99.90;;;;;;5089927;28;20036;-72
2023/07/29 09:03:56;;;;;;;7.47;2.28;;;19.90;99.90;;;;;;5090268;28;20036;-72
2023/07/29 09:06:25;;;;;;;7.47;2.40;;;20.00;99.90;;;;;;5090265;28;20503;-72
2023/07/29 09:08:53;;;;;;;7.13;1.92;;;20.10;99.90;;;;;;5088461;28;20044;-72
2023/07/29 09:11:20;;;;;;;8.60;2.30;;;20.10;99.90;;;;;;5089725;28;20115;-72
2023/07/29 09:13:46;;;;;;;7.80;1.98;;;20.20;99.90;;;;;;5089854;28;20193;-72
2023/07/29 09:16:12;;;;;;;5.88;1.83;;;20.30;99.90;;;;;;5089455;28;20123;-73
2023/07/29 09:18:38;;;;;;;6.15;2.00;;;20.40;99.90;;;;;;5088731;28;20178;-72
2023/07/29 09:21:04;;;;;;;7.57;2.03;;;20.40;99.90;;;;;;5090122;28;20119;-72
2023/07/29 09:23:41;;;;;;;5.95;1.73;;;20.40;99.90;;;;;;5089672;28;20040;-72
2023/07/29 09:26:06;;;;;;;4.70;1.60;;;20.50;99.90;;;;;;5087773;28;20185;-72
2023/07/29 09:28:34;;;;;;;4.75;1.35;;;20.50;99.90;;;;;;5089146;28;20560;-71
2023/07/29 09:31:00;;;;;;;7.65;1.67;;;20.50;99.90;;;;;;5089491;28;20086;-71
2023/07/29 09:33:26;;;;;;;7.85;1.70;;;20.50;99.90;;;;;;5087692;28;20144;-72
2023/07/29 09:35:52;;;;;;;6.78;1.50;;;20.70;99.90;;;;;;5089146;28;20522;-72
2023/07/29 09:38:25;;;;;;;7.70;1.90;;;20.60;99.90;;;;;;5087935;28;20078;-72
2023/07/29 09:40:58;;;;;;;5.38;1.63;;;20.70;99.90;;;;;;5088234;28;20066;-72
2023/07/29 09:43:34;;;;;;;5.65;1.70;;;20.70;99.90;;;;;;5089321;28;20044;-71
2023/07/29 09:46:01;;;;;;;9.20;1.73;;;20.80;99.90;;;;;;5089062;28;20088;-72
2023/07/29 09:48:28;;;;;;;8.60;1.73;;;20.80;99.90;;;;;;5089270;28;20062;-72
2023/07/29 09:50:55;;;;;;;5.85;1.65;;;20.80;99.90;;;;;;5088952;28;20052;-72
2023/07/29 09:53:21;;;;;;;6.88;1.83;;;20.80;99.90;;;;;;5086176;28;20043;-72
2023/07/29 09:55:50;;;;;;;5.05;1.40;;;20.80;99.90;;;;;;5088626;28;20413;-73
2023/07/29 09:58:26;;;;;;;4.85;1.50;;;20.90;99.90;;;;;;5087431;28;20071;-72
2023/07/29 10:00:52;;;;;;;7.25;1.63;;;21.00;99.90;;;;;;5084756;28;20170;-71
2023/07/29 10:03:21;;;;;;;7.45;1.75;;;21.00;99.90;;;;;;5088964;28;20100;-72
2023/07/29 10:05:47;;;;;;;10.55;2.08;;;21.10;99.90;;;;;;5089015;28;20509;-72
2023/07/29 10:08:14;;;;;;;5.22;1.60;;;21.10;99.90;;;;;;5087190;28;20050;-73
2023/07/29 10:10:42;;;;;;;6.75;1.70;;;21.10;99.90;;;;;;5088731;28;20400;-72
2023/07/29 10:13:10;;;;;;;5.78;1.70;;;21.10;99.90;;;;;;5088673;28;20566;-73
2023/07/29 10:15:36;;;;;;;5.38;1.77;;;21.20;99.90;;;;;;5088549;28;20040;-72
2023/07/29 10:18:05;;;;;;;5.63;1.77;;;21.20;99.90;;;;;;5088215;28;20507;-73
2023/07/29 10:20:32;;;;;;;6.72;1.92;;;21.30;99.90;;;;;;5088681;28;20051;-72
2023/07/29 10:23:00;;;;;;;4.32;1.38;;;21.30;99.90;;;;;;5088560;28;20750;-72
2023/07/29 10:25:37;;;;;;;5.07;1.33;;;21.40;99.90;;;;;;5088915;28;20047;-72
2023/07/29 10:28:08;;;;;;;5.28;1.40;;;21.50;99.90;;;;;;5088445;28;20043;-71
2023/07/29 10:30:33;;;;;;;6.22;1.70;;;21.60;99.90;;;;;;5088632;28;20614;-71
2023/07/29 10:33:02;;;;;;;4.80;1.40;;;21.70;99.90;;;;;;5088325;28;20055;-77
2023/07/29 10:35:29;;;;;;;7.22;1.83;;;21.80;99.90;;;;;;5088099;28;20123;-71
2023/07/29 10:37:55;;;;;;;6.25;1.80;;;21.80;99.90;;;;;;5086836;28;20040;-76
2023/07/29 10:40:22;;;;;;;7.20;1.45;;;21.80;99.90;;;;;;5088121;28;20040;-76
2023/07/29 10:43:08;;;;;;;7.85;1.65;;;21.80;99.90;;;;;;5087062;28;20072;-76
2023/07/29 10:45:42;;;;;;;4.95;1.48;;;21.80;99.90;;;;;;5087912;28;20454;-76
2023/07/29 10:48:34;;;;;;;3.97;1.70;;;21.70;99.90;;;;;;5085531;28;20043;-76
2023/07/29 10:51:26;;;;;;;5.47;1.65;;;21.70;99.90;;;;;;5086113;28;20047;-77
2023/07/29 10:54:03;;;;;;;6.93;1.85;;;21.60;99.90;;;;;;5086002;28;20036;-76
2023/07/29 10:56:32;;;;;;;8.30;1.63;;;21.50;99.90;;;;;;5085611;28;20051;-76
2023/07/29 10:59:19;;;;;;;8.73;2.25;;;21.50;99.90;;;;;;5085753;28;20040;-75
2023/07/29 11:01:57;;;;;;;4.53;1.92;;;21.40;99.90;;;;;;5085745;28;20051;-77
2023/07/29 11:04:23;;;;;;;5.60;1.77;;;21.30;99.90;;;;;;5086092;28;20097;-74
2023/07/29 11:07:04;;;;;;;4.32;1.60;;;21.20;99.90;;;;;;5083914;28;20133;-74
2023/07/29 11:09:48;;;;;;;3.88;1.40;;;21.10;99.90;;;;;;5086116;28;20051;-74
2023/07/29 11:12:42;;;;;;;4.55;1.40;;;21.00;99.90;;;;;;5087237;28;20123;-74
2023/07/29 11:15:13;;;;;;;5.05;1.45;;;20.90;99.90;;;;;;5085866;28;20082;-74
2023/07/29 11:17:41;;;;;;;6.28;1.60;;;20.80;99.90;;;;;;5085247;28;20040;-75
2023/07/29 11:20:08;;;;;;;5.20;1.60;;;20.80;99.90;;;;;;5086531;28;20069;-76
2023/07/29 11:22:35;;;;;;;4.55;1.65;;;20.80;99.90;;;;;;5085866;28;20048;-75
2023/07/29 11:25:00;;;;;;;5.22;1.63;;;20.70;99.90;;;;;;5080557;28;20043;-76
2023/07/29 11:27:26;;;;;;;6.40;1.90;;;20.80;99.90;;;;;;5075705;28;20047;-75
2023/07/29 11:30:07;;;;;;;5.53;1.65;;;20.90;99.90;;;;;;5080392;28;20067;-76
2023/07/29 11:32:34;;;;;;;4.22;1.80;;;20.90;99.90;;;;;;5080224;28;20394;-72
2023/07/29 11:35:04;;;;;;;6.75;2.08;;;21.00;99.90;;;;;;5069630;28;20048;-71
2023/07/29 11:37:29;;;;;;;6.70;2.10;;;21.10;99.90;;;;;;5082408;28;20417;-71
2023/07/29 11:39:55;;;;;;;6.38;2.17;;;21.20;99.90;;;;;;5079901;28;20036;-72
2023/07/29 11:42:21;;;;;;;6.97;1.80;;;21.20;99.90;;;;;;5073469;28;20083;-72
2023/07/29 11:44:47;;;;;;;7.07;2.10;;;21.20;99.90;;;;;;5095302;28;20878;-73
2023/07/29 11:47:13;;;;;;;8.93;2.10;;;21.10;99.90;;;;;;5080640;28;20043;-71
2023/07/29 11:49:40;;;;;;;9.80;2.10;;;21.10;99.90;;;;;;5080385;28;20513;-71
2023/07/29 11:52:10;;;;;;;6.85;1.92;;;21.10;99.90;;;;;;5077458;28;20504;-71
2023/07/29 11:54:37;;;;;;;7.15;2.08;;;21.10;99.90;;;;;;5082303;28;20097;-71
2023/07/29 11:57:13;;;;;;;8.30;1.98;;;21.00;99.90;;;;;;5086247;28;20055;-72
2023/07/29 11:59:39;;;;;;;6.65;2.28;;;21.00;99.90;;;;;;5084719;28;20051;-72
2023/07/29 12:02:17;;;;;;;7.68;2.42;;;21.00;99.90;;;;;;5085772;28;20040;-72
2023/07/29 12:04:47;;;;;;;8.90;2.28;;;21.00;99.90;;;;;;5085781;28;20048;-72
2023/07/29 12:07:14;;;;;;;8.02;2.50;;;21.00;99.90;;;;;;5080099;28;20035;-71
2023/07/29 12:09:42;;;;;;;9.32;2.15;;;21.00;99.90;;;;;;5079940;28;20059;-71
2023/07/29 12:12:08;;;;;;;7.57;2.17;;;21.00;99.90;;;;;;5079556;28;20079;-71
2023/07/29 12:14:34;;;;;;;6.50;2.00;;;21.00;99.90;;;;;;5080313;28;20045;-72
2023/07/29 12:17:02;;;;;;;4.85;1.60;;;21.00;99.90;;;;;;5079375;28;20039;-73
2023/07/29 12:19:35;;;;;;;7.93;1.88;;;21.00;99.90;;;;;;5079669;28;20077;-71
2023/07/29 12:22:02;;;;;;;6.28;1.90;;;21.00;99.90;;;;;;5079845;28;20136;-70
2023/07/29 12:24:34;;;;;;;9.52;2.08;;;21.00;99.90;;;;;;5079722;28;20052;-72
2023/07/29 12:27:00;;;;;;;7.88;2.30;;;21.00;99.90;;;;;;5079859;28;20047;-71
2023/07/29 12:29:26;;;;;;;6.85;2.00;;;20.90;99.90;;;;;;5079469;28;20032;-72
2023/07/29 12:32:03;;;;;;;6.15;1.90;;;20.90;99.90;;;;;;5069705;28;20185;-72
2023/07/29 12:34:31;;;;;;;6.03;1.80;;;20.90;99.90;;;;;;5079155;28;20043;-72
2023/07/29 12:36:58;;;;;;;6.97;2.30;;;20.90;99.90;;;;;;5079785;28;21104;-76
2023/07/29 12:39:29;;;;;;;6.45;2.17;;;20.90;99.90;;;;;;5079498;28;20048;-76
2023/07/29 12:41:58;;;;;;;6.97;1.77;;;21.00;99.90;;;;;;5069259;28;20036;-76
2023/07/29 12:44:25;;;;;;;8.10;2.00;;;21.10;99.90;;;;;;5081429;28;20071;-75